Latest Weather Observations for Sheffield

IDT60801

Issued at 4:01 pm EDT Saturday 20 December 2014 (issued every 30 minutes, with the page automatically refreshed every 10 minutes)

About weather observations | Map of weather stations | Latest weather observations for TAS | Other Formats
Station Details ID: 091291 Name: SHEFFIELD SCHOOL FARM Lat: -41.39 Lon: 146.32 Height: 294.2 m
Data from the previous 72 hours. | See also: Recent months at Sheffield
Date/Time
EDT
Temp
°C
App
Temp
°C
Dew
Point
Rel
Hum
%
Delta-T
°C
Wind Press
QNH
hPa
Press
MSL
hPa
Rain
since 9 am
mm
Dir
 
Spd
km/h
Gust
km/h
Spd
kts
Gust
kts
20/04:00pm 21.0 14.9 5.0 35 8.0 WSW 26 37 14 20 1013.1 1012.8 0.0
20/03:30pm 20.7 14.4 5.5 37 7.6 WSW 28 41 15 22 1013.2 1012.9 0.0
20/03:00pm 20.8 14.9 5.6 37 7.7 WSW 26 37 14 20 1013.2 1012.9 0.0
20/02:30pm 20.3 14.7 5.5 38 7.4 WSW 24 35 13 19 1013.3 1013.0 0.0
20/02:00pm 19.7 12.6 6.4 42 6.8 WSW 33 46 18 25 1013.4 1013.1 0.0
20/01:36pm 19.5 13.1 5.2 39 7.1 WSW 28 46 15 25 1013.3 1013.0 0.0
20/01:30pm 19.5 13.9 5.6 40 6.9 WSW 24 39 13 21 1013.2 1012.9 0.0
20/01:00pm 19.2 13.0 6.0 42 6.6 WSW 28 37 15 20 1013.4 1013.1 0.0
20/12:35pm 19.1 12.6 6.6 44 6.3 W 30 50 16 27 1013.4 1013.1 0.0
20/12:30pm 19.2 12.5 5.6 41 6.8 WSW 30 44 16 24 1013.5 1013.2 0.0
20/12:00pm 19.5 13.2 7.3 45 6.3 WSW 30 41 16 22 1013.6 1013.3 0.0
20/11:30am 19.0 12.9 6.5 44 6.3 WSW 28 39 15 21 1013.5 1013.2 0.0
20/11:00am 18.4 13.6 8.9 54 5.0 W 24 37 13 20 1013.4 1013.1 0.0
20/10:30am 18.3 13.8 9.9 58 4.5 W 24 37 13 20 1013.4 1013.1 0.0
20/10:00am 18.1 13.6 10.0 59 4.4 W 24 39 13 21 1013.4 1013.1 0.0
20/09:30am 16.0 14.3 9.7 66 3.3 NW 9 19 5 10 1013.4 1013.1 0.0
20/09:00am 15.3 12.9 10.1 71 2.8 WNW 13 17 7 9 1013.5 1013.2 0.0
20/08:30am 14.1 11.3 10.1 77 2.1 NNW 15 20 8 11 1013.5 1013.2 0.0
20/08:00am 12.1 9.5 9.5 84 1.3 NNW 13 17 7 9 1013.3 1013.0 0.0
20/07:30am 10.4 8.5 9.2 92 0.6 NNW 9 15 5 8 1013.0 1012.7 0.0
20/07:00am 8.9 6.7 7.7 92 0.6 NW 9 13 5 7 1012.9 1012.6 0.0
20/06:30am 8.6 6.3 7.4 92 0.6 NNW 9 13 5 7 1012.9 1012.6 0.0
20/05:30am 8.6 5.5 7.2 91 0.7 NNW 13 15 7 8 1012.7 1012.3 0.0
20/05:00am 8.8 5.7 7.1 89 0.8 NNW 13 17 7 9 1012.5 1012.1 0.0
20/04:30am 9.2 6.0 7.0 86 1.0 NW 13 17 7 9 1012.6 1012.2 0.0
20/04:00am 9.2 5.7 7.0 86 1.0 NW 15 19 8 10 1012.5 1012.1 0.0
20/03:30am 9.4 6.2 6.8 84 1.2 NW 13 17 7 9 1012.8 1012.4 0.0
20/03:00am 9.6 6.0 6.7 82 1.4 NW 15 20 8 11 1013.1 1012.8 0.0
20/02:30am 9.9 5.8 6.3 78 1.7 NW 17 20 9 11 1013.5 1013.2 0.0
20/02:00am 9.9 6.6 6.3 78 1.7 NW 13 17 7 9 1013.9 1013.6 0.0
20/01:30am 10.0 7.7 5.8 75 2.0 NNW 7 9 4 5 1014.4 1014.1 0.0
20/01:00am 10.0 7.7 5.8 75 2.0 NNW 7 9 4 5 1014.7 1014.4 0.0
20/12:30am 10.0 8.3 5.8 75 2.0 WNW 4 6 2 3 1015.0 1014.7 0.0
20/12:00am 10.3 8.1 5.5 72 2.2 NW 6 7 3 4 1015.3 1015.0 0.0
 
Date/Time
EDT
Temp
°C
App
Temp
°C
Dew
Point
Rel
Hum
%
Delta-T
°C
Wind Press
QNH
hPa
Press
MSL
hPa
Rain
since 9 am
mm
Dir
 
Spd
km/h
Gust
km/h
Spd
kts
Gust
kts
19/11:30pm 10.2 8.0 5.2 71 2.3 NW 6 6 3 3 1015.4 1015.1 0.0
19/11:00pm 10.4 8.1 5.0 69 2.5 WNW 6 7 3 4 1015.9 1015.6 0.0
19/10:30pm 10.2 7.8 4.4 67 2.6 W 6 7 3 4 1016.0 1015.7 0.0
19/10:00pm 10.3 7.7 4.2 66 2.8 W 7 9 4 5 1015.9 1015.6 0.0
19/09:30pm 10.7 8.1 4.0 63 3.0 W 7 13 4 7 1015.8 1015.4 0.0
19/09:00pm 11.0 8.0 4.2 63 3.1 WSW 9 13 5 7 1015.8 1015.4 0.0
19/08:30pm 11.4 7.7 4.2 61 3.3 WSW 13 17 7 9 1015.7 1015.3 0.0
19/08:00pm 11.9 6.9 4.4 60 3.4 WSW 20 30 11 16 1015.4 1015.1 0.0
19/07:30pm 12.4 5.8 4.1 57 3.8 WSW 28 35 15 19 1014.8 1014.5 0.0
19/07:00pm 13.2 6.2 4.1 54 4.2 W 30 39 16 21 1014.2 1013.9 0.0
19/06:30pm 13.9 8.7 3.7 50 4.7 WSW 20 32 11 17 1014.0 1013.7 0.0
19/06:00pm 14.3 8.9 2.2 44 5.4 WSW 20 32 11 17 1013.7 1013.4 0.0
19/05:30pm 15.1 9.3 2.3 42 5.8 W 22 33 12 18 1013.6 1013.3 0.0
19/05:00pm 14.7 8.4 1.3 40 5.9 W 24 33 13 18 1013.4 1013.1 0.0
19/04:30pm 14.9 7.4 1.1 39 6.1 W 30 39 16 21 1013.3 1013.0 0.0
19/04:00pm 15.7 9.3 1.1 37 6.5 W 24 37 13 20 1013.3 1013.0 0.0
19/03:30pm 15.2 8.4 1.0 38 6.2 WSW 26 37 14 20 1013.1 1012.8 0.0
19/03:00pm 15.6 10.7 2.1 40 6.1 SW 17 26 9 14 1013.2 1012.9 0.0
19/02:30pm 17.2 12.0 3.5 40 6.5 W 20 33 11 18 1013.2 1012.9 0.0
19/02:00pm 16.0 9.7 1.7 38 6.4 WSW 24 35 13 19 1013.0 1012.7 0.0
19/01:30pm 16.6 11.3 3.0 40 6.3 W 20 30 11 16 1013.1 1012.8 0.0
19/01:00pm 15.5 10.4 3.3 44 5.6 W 19 24 10 13 1013.1 1012.8 0.0
19/12:30pm 15.4 11.7 2.2 41 6.0 WSW 11 26 6 14 1012.9 1012.6 0.0
19/12:00pm 14.9 10.5 2.8 44 5.5 SW 15 24 8 13 1013.0 1012.7 0.0
19/11:30am 14.3 9.1 2.5 45 5.3 W 19 24 10 13 1013.0 1012.7 0.0
19/11:00am 14.5 9.5 1.4 41 5.8 WSW 17 24 9 13 1012.9 1012.6 0.0
19/10:30am 13.9 9.1 2.8 47 5.0 WSW 17 26 9 14 1012.8 1012.4 0.0
19/10:00am 13.4 9.0 2.9 49 4.7 SSW 15 22 8 12 1013.1 1012.8 0.0
19/09:30am 12.9 9.0 3.3 52 4.3 SW 13 20 7 11 1013.0 1012.7 0.0
19/09:00am 12.1 8.1 2.6 52 4.2 WSW 13 22 7 12 1012.8 1012.4 6.8
19/08:30am 11.7 8.2 3.5 57 3.7 SW 11 17 6 9 1012.4 1012.0 6.8
19/08:00am 11.1 6.7 2.9 57 3.6 WSW 15 24 8 13 1012.2 1011.8 6.8
19/07:30am 10.1 6.6 3.4 63 3.0 W 11 17 6 9 1011.7 1011.4 6.8
19/07:00am 9.5 5.5 2.8 63 2.9 SW 13 20 7 11 1011.3 1011.0 6.8
19/06:30am 8.6 3.9 3.0 68 2.4 SW 17 24 9 13 1010.8 1010.5 6.8
19/06:00am 6.8 2.8 2.7 75 1.7 WNW 13 20 7 11 1010.2 1009.9 6.8
19/05:30am 6.9 4.6 3.0 76 1.7 ESE 4 9 2 5 1009.9 1009.5 6.8
19/05:00am 5.4 2.7 2.6 82 1.2 N 6 9 3 5 1009.4 1009.0 6.8
19/04:30am 6.0 2.1 3.2 82 1.2 NW 13 19 7 10 1009.0 1008.6 6.8
19/04:00am 7.3 5.1 3.5 77 1.6 NNW 4 6 2 3 1009.0 1008.6 6.8
19/03:30am 7.5 5.0 3.6 76 1.7 WSW 6 9 3 5 1009.0 1008.6 6.8
19/03:00am 6.3 4.5 3.3 81 1.3 NNE 2 6 1 3 1008.9 1008.5 6.8
19/02:30am 7.4 5.2 3.6 77 1.6 WNW 4 6 2 3 1008.8 1008.4 6.8
19/02:00am 7.1 4.5 3.3 77 1.6 NW 6 9 3 5 1008.7 1008.3 6.8
19/01:30am 7.0 4.8 3.3 77 1.6 NW 4 7 2 4 1008.6 1008.2 6.8
19/01:00am 7.6 4.5 3.8 77 1.7 WNW 9 13 5 7 1008.4 1008.0 6.8
19/12:30am 7.9 5.2 3.8 75 1.8 W 7 13 4 7 1008.1 1007.8 6.8
19/12:00am 8.4 4.9 3.7 72 2.1 W 11 17 6 9 1007.8 1007.5 6.8
 
Date/Time
EDT
Temp
°C
App
Temp
°C
Dew
Point
Rel
Hum
%
Delta-T
°C
Wind Press
QNH
hPa
Press
MSL
hPa
Rain
since 9 am
mm
Dir
 
Spd
km/h
Gust
km/h
Spd
kts
Gust
kts
18/11:30pm 8.3 4.8 3.6 72 2.1 WSW 11 19 6 10 1007.6 1007.3 6.8
18/11:00pm 8.8 4.9 3.4 69 2.4 W 13 19 7 10 1007.2 1006.9 6.8
18/10:30pm 9.5 4.9 3.7 67 2.6 W 17 22 9 12 1007.1 1006.8 6.8
18/10:00pm 9.9 4.5 4.3 68 2.5 W 22 33 12 18 1006.9 1006.5 6.8
18/09:30pm 9.9 5.0 4.9 71 2.3 W 20 28 11 15 1006.6 1006.2 6.8
18/09:00pm 10.5 5.6 4.9 68 2.6 W 20 30 11 16 1006.1 1005.7 6.8
18/08:30pm 11.2 6.3 4.9 65 2.9 W 20 30 11 16 1005.8 1005.4 6.8
18/08:00pm 11.8 6.5 5.2 64 3.1 W 22 33 12 18 1005.3 1004.9 6.8
18/07:30pm 12.6 7.5 5.8 63 3.2 W 22 37 12 20 1004.9 1004.5 6.8
18/07:00pm 13.0 8.0 6.6 65 3.1 WSW 22 37 12 20 1004.5 1004.2 6.8
18/06:30pm 12.7 7.0 6.5 66 3.0 WSW 26 37 14 20 1004.1 1003.8 6.8
18/06:00pm 13.1 10.3 8.4 73 2.4 W 13 20 7 11 1003.5 1003.1 6.4
18/05:30pm 13.8 11.1 8.8 72 2.6 WNW 13 20 7 11 1003.2 1002.8 6.4
18/05:00pm 12.7 10.1 9.3 80 1.8 NW 13 24 7 13 1003.2 1002.8 6.4
18/04:30pm 11.6 8.9 8.8 83 1.4 NW 13 17 7 9 1003.1 1002.7 6.4
18/04:00pm 11.6 8.2 9.0 84 1.3 WNW 17 22 9 12 1003.3 1002.9 6.0
18/03:30pm 12.2 9.5 10.3 88 1.0 NW 15 19 8 10 1003.1 1002.7 5.4
18/03:00pm 12.0 8.4 9.9 87 1.1 NW 19 32 10 17 1003.0 1002.6 4.4
18/02:30pm 12.8 9.4 9.3 79 1.8 NW 17 22 9 12 1002.8 1002.4 3.2
18/02:00pm 13.4 9.0 9.1 75 2.2 NW 22 28 12 15 1003.1 1002.7 3.0
18/01:30pm 13.8 9.3 8.6 71 2.7 NW 22 28 12 15 1003.1 1002.7 3.0
18/01:00pm 13.7 9.1 8.3 70 2.7 NNW 22 35 12 19 1003.3 1002.9 3.0
18/12:30pm 13.7 9.1 8.3 70 2.7 N 22 32 12 17 1003.4 1003.0 3.0
18/12:00pm 14.1 10.5 9.9 76 2.2 N 19 24 10 13 1003.7 1003.3 3.0
18/11:30am 13.6 11.5 11.0 84 1.4 NNW 13 19 7 10 1003.9 1003.5 3.0
18/11:00am 12.6 10.8 10.7 88 1.0 NW 11 17 6 9 1004.2 1003.9 3.0
18/10:30am 11.6 9.2 9.9 89 0.9 NW 13 22 7 12 1004.4 1004.1 2.8
18/10:00am 12.2 11.4 9.6 84 1.3 NNW 4 6 2 3 1004.5 1004.2 0.2
18/09:30am 12.0 11.1 7.9 76 2.0 WNW 2 6 1 3 1005.0 1004.6 0.0
18/09:00am 11.8 10.5 7.7 76 2.0 NNW 4 7 2 4 1005.2 1004.8 0.0
18/08:30am 10.9 9.9 7.2 78 1.8 NW 2 4 1 2 1005.4 1005.0 0.0
18/08:00am 10.4 9.6 6.7 78 1.8 CALM 0 0 0 0 1005.2 1004.8 0.0
18/07:30am 9.7 8.6 6.8 82 1.4 W 2 4 1 2 1005.3 1004.9 0.0
18/07:00am 8.7 7.8 6.0 83 1.3 CALM 0 0 0 0 1005.1 1004.7 0.0
18/06:30am 8.2 7.3 6.0 86 1.0 CALM 0 0 0 0 1005.1 1004.7 0.0
18/06:00am 7.9 6.9 5.4 84 1.1 CALM 0 0 0 0 1005.2 1004.8 0.0
18/05:30am 7.3 5.8 5.0 85 1.0 N 2 4 1 2 1005.4 1005.0 0.0
18/05:00am 7.0 5.1 4.8 86 1.0 N 4 6 2 3 1005.5 1005.1 0.0
18/04:30am 6.8 4.8 4.5 85 1.0 NNW 4 4 2 2 1005.4 1005.0 0.0
18/04:00am 6.0 3.9 3.8 86 1.0 NNW 4 4 2 2 1005.5 1005.1 0.0
18/03:30am 6.3 4.6 4.0 85 1.0 NW 2 4 1 2 1005.5 1005.1 0.0
18/03:00am 6.3 4.6 3.8 84 1.1 NW 2 6 1 3 1005.5 1005.1 0.0
18/02:30am 6.0 3.8 3.5 84 1.1 WNW 4 6 2 3 1005.6 1005.2 0.0
18/02:00am 6.9 4.8 3.9 81 1.3 NW 4 4 2 2 1005.5 1005.1 0.0
18/01:30am 7.4 5.6 3.6 77 1.6 W 2 4 1 2 1005.8 1005.4 0.0
18/01:00am 7.6 5.1 3.5 75 1.8 W 6 7 3 4 1005.9 1005.5 0.0
18/12:30am 7.7 4.9 3.2 73 1.9 W 7 11 4 6 1006.1 1005.7 0.0
18/12:00am 8.0 4.8 3.3 72 2.0 W 9 11 5 6 1006.3 1005.9 0.0
 
Date/Time
EDT
Temp
°C
App
Temp
°C
Dew
Point
Rel
Hum
%
Delta-T
°C
Wind Press
QNH
hPa
Press
MSL
hPa
Rain
since 9 am
mm
Dir
 
Spd
km/h
Gust
km/h
Spd
kts
Gust
kts
17/11:30pm 8.8 6.0 3.2 68 2.4 WSW 7 9 4 5 1006.5 1006.1 0.0
17/11:00pm 8.7 6.0 2.7 66 2.6 W 6 7 3 4 1006.8 1006.4 0.0
17/10:30pm 9.0 7.1 3.0 66 2.6 WNW 2 6 1 3 1007.1 1006.8 0.0
17/10:00pm 9.6 7.0 3.4 65 2.7 NW 6 9 3 5 1007.0 1006.6 0.0
17/09:30pm 10.4 7.8 3.2 61 3.2 WNW 6 9 3 5 1006.9 1006.5 0.0
17/09:00pm 11.3 8.5 2.9 56 3.7 W 7 13 4 7 1006.8 1006.4 0.0
17/08:30pm 12.5 8.9 2.7 51 4.4 WNW 11 19 6 10 1006.6 1006.2 0.0
17/08:00pm 13.6 9.1 1.9 45 5.2 W 15 22 8 12 1006.4 1006.0 0.0
17/07:30pm 14.6 9.8 2.5 44 5.5 W 17 24 9 13 1006.1 1005.7 0.0
17/07:00pm 14.8 11.0 3.9 48 5.1 SW 13 20 7 11 1005.8 1005.4 0.0
17/06:30pm 15.5 10.7 4.8 49 5.1 WSW 19 30 10 16 1005.5 1005.1 0.0
17/06:00pm 15.1 9.6 4.2 48 5.1 WSW 22 30 12 16 1005.2 1004.8 0.0
17/05:30pm 16.1 12.1 2.9 41 6.1 WSW 13 19 7 10 1005.1 1004.7 0.0
17/05:00pm 15.8 11.3 2.2 40 6.2 WSW 15 28 8 15 1005.2 1004.8 0.0
17/04:30pm 15.7 11.4 3.5 44 5.7 WSW 15 26 8 14 1005.2 1004.8 0.0

Other Formats:

Comma delimited format used in spreadsheet applications
http://www.bom.gov.au/fwo/IDT60801/IDT60801.94955.axf

JavaScript Object Notation format (JSON) in row-major order
http://www.bom.gov.au/fwo/IDT60801/IDT60801.94955.json